Time;durP1;ratioP1;P1;durP2;ratioP2;P2;SDS_P1;SDS_P2;PMS_P1;PMS_P2;Temp;Humidity;BMP_temperature;BMP_pressure;BME280_temperature;BME280_humidity;BME280_pressure;Samples;Min_cycle;Max_cycle;Signal;HPM_P1;HPM_P2
2022/07/29 00:02:01;;;;;;;2.95;2.38;;;21.20;94.60;;;;;;4977097;28;20062;-74
2022/07/29 00:04:26;;;;;;;6.80;2.30;;;21.10;94.70;;;;;;4972195;28;20054;-74
2022/07/29 00:06:52;;;;;;;5.03;2.83;;;21.10;94.90;;;;;;4970102;28;20369;-75
2022/07/29 00:09:18;;;;;;;2.63;2.40;;;21.10;95.10;;;;;;4981786;28;20164;-67
2022/07/29 00:11:43;;;;;;;2.92;2.72;;;21.00;95.40;;;;;;4990727;28;20137;-66
2022/07/29 00:14:09;;;;;;;5.30;2.35;;;21.10;95.20;;;;;;4989853;28;20052;-66
2022/07/29 00:16:35;;;;;;;2.65;2.42;;;21.00;95.30;;;;;;4990210;28;20053;-67
2022/07/29 00:19:01;;;;;;;2.88;2.67;;;21.00;95.30;;;;;;4989409;28;20356;-66
2022/07/29 00:21:26;;;;;;;14.80;3.05;;;21.00;95.30;;;;;;4995174;28;20176;-67
2022/07/29 00:23:52;;;;;;;22.13;2.95;;;21.00;95.40;;;;;;4986098;28;20030;-66
2022/07/29 00:26:17;;;;;;;2.65;2.45;;;20.90;95.60;;;;;;4989753;28;20306;-66
2022/07/29 00:28:43;;;;;;;3.13;2.80;;;20.90;95.70;;;;;;4996044;28;20034;-66
2022/07/29 00:31:09;;;;;;;3.88;3.08;;;20.80;95.80;;;;;;4985933;28;21360;-67
2022/07/29 00:33:35;;;;;;;3.67;2.53;;;20.80;96.00;;;;;;4983571;28;20160;-66
2022/07/29 00:36:00;;;;;;;3.45;2.63;;;20.80;96.00;;;;;;4966776;28;20135;-66
2022/07/29 00:38:26;;;;;;;6.63;2.72;;;20.80;96.00;;;;;;4986739;28;20125;-66
2022/07/29 00:40:52;;;;;;;5.25;3.03;;;20.80;96.00;;;;;;4986274;28;20503;-66
2022/07/29 00:43:17;;;;;;;2.85;2.50;;;20.80;96.10;;;;;;4987691;28;20056;-67
2022/07/29 00:45:43;;;;;;;2.88;2.67;;;20.70;96.30;;;;;;4993845;28;20939;-67
2022/07/29 00:48:10;;;;;;;2.80;2.30;;;20.70;96.70;;;;;;4988533;28;20034;-66
2022/07/29 00:50:36;;;;;;;2.72;2.53;;;20.70;96.90;;;;;;4987897;28;20041;-66
2022/07/29 00:53:04;;;;;;;3.80;2.40;;;20.60;96.90;;;;;;4992025;28;20752;-66
2022/07/29 00:55:30;;;;;;;2.58;2.38;;;20.50;97.00;;;;;;4997116;28;20029;-66
2022/07/29 00:57:57;;;;;;;3.65;2.90;;;20.50;97.20;;;;;;4992545;28;20030;-66
2022/07/29 01:00:25;;;;;;;3.95;2.75;;;20.50;96.90;;;;;;4991477;28;20027;-66
2022/07/29 01:02:51;;;;;;;2.40;2.30;;;20.50;96.90;;;;;;4992701;28;20034;-66
2022/07/29 01:05:19;;;;;;;5.35;2.90;;;20.50;97.00;;;;;;4988076;28;20101;-67
2022/07/29 01:07:45;;;;;;;3.72;2.80;;;20.50;97.20;;;;;;4984249;28;20139;-75
2022/07/29 01:10:13;;;;;;;2.40;2.30;;;20.40;97.00;;;;;;4974143;28;20054;-75
2022/07/29 01:12:40;;;;;;;2.30;2.10;;;20.40;97.20;;;;;;4964277;28;20108;-75
2022/07/29 01:15:07;;;;;;;2.53;2.33;;;20.40;97.90;;;;;;4968710;28;20046;-75
2022/07/29 01:18:03;;;;;;;2.70;2.50;;;20.30;97.90;;;;;;4970513;28;20500;-75
2022/07/29 01:20:48;;;;;;;5.15;2.30;;;20.30;98.10;;;;;;4973504;28;20039;-76
2022/07/29 01:23:35;;;;;;;3.33;2.75;;;20.20;98.40;;;;;;4950216;28;20081;-75
2022/07/29 01:26:30;;;;;;;2.63;2.45;;;20.10;98.60;;;;;;4969759;28;20146;-75
2022/07/29 01:29:01;;;;;;;5.15;2.50;;;20.00;98.60;;;;;;4970065;28;20101;-75
2022/07/29 01:31:58;;;;;;;11.93;3.00;;;20.00;98.60;;;;;;4968838;28;20069;-75
2022/07/29 01:34:47;;;;;;;3.80;2.58;;;20.00;99.10;;;;;;4971320;28;20296;-75
2022/07/29 01:37:18;;;;;;;3.72;2.53;;;19.90;98.80;;;;;;4973049;28;20040;-75
2022/07/29 01:39:47;;;;;;;2.95;2.75;;;19.90;99.00;;;;;;4965072;28;20046;-75
2022/07/29 01:42:48;;;;;;;3.08;2.83;;;19.80;99.10;;;;;;4968042;28;20113;-75
2022/07/29 01:46:04;;;;;;;5.45;2.50;;;19.70;99.20;;;;;;4910851;29;20075;-75
2022/07/29 01:48:50;;;;;;;3.55;2.70;;;19.80;99.40;;;;;;4894242;29;20513;-75
2022/07/29 01:51:23;;;;;;;4.25;2.60;;;19.80;99.10;;;;;;4887609;29;20131;-75
2022/07/29 01:54:08;;;;;;;4.40;2.70;;;19.70;99.20;;;;;;4947296;28;20136;-75
2022/07/29 01:56:37;;;;;;;4.30;2.63;;;19.70;99.40;;;;;;4969095;28;20376;-75
2022/07/29 01:59:06;;;;;;;3.25;2.75;;;19.60;99.50;;;;;;4968292;28;20065;-76
2022/07/29 02:01:34;;;;;;;2.75;2.55;;;19.70;99.50;;;;;;4965879;28;20026;-76
2022/07/29 02:04:04;;;;;;;2.90;2.70;;;19.60;99.60;;;;;;4965704;28;20038;-75
2022/07/29 02:06:32;;;;;;;3.17;2.50;;;19.50;99.80;;;;;;4966377;28;20562;-75
2022/07/29 02:08:59;;;;;;;3.53;2.90;;;19.50;99.70;;;;;;4974915;28;20042;-75
2022/07/29 02:11:25;;;;;;;6.82;3.17;;;19.50;99.70;;;;;;4972025;28;20522;-76
2022/07/29 02:13:54;;;;;;;3.80;2.72;;;19.50;99.90;;;;;;4972342;28;20193;-75
2022/07/29 02:16:40;;;;;;;10.65;3.15;;;19.40;99.90;;;;;;4982649;28;20045;-76
2022/07/29 02:19:08;;;;;;;3.17;2.88;;;19.30;99.90;;;;;;4988529;28;20065;-75
2022/07/29 02:21:35;;;;;;;4.97;2.47;;;19.30;99.90;;;;;;4987628;28;20041;-75
2022/07/29 02:24:02;;;;;;;4.30;2.75;;;19.30;99.90;;;;;;4988414;28;20049;-75
2022/07/29 02:26:30;;;;;;;3.22;2.92;;;19.30;99.90;;;;;;4987501;28;20025;-75
2022/07/29 02:28:58;;;;;;;4.22;2.70;;;19.30;99.90;;;;;;4991304;28;20045;-75
2022/07/29 02:31:28;;;;;;;2.78;2.58;;;19.30;99.90;;;;;;4982521;28;20048;-76
2022/07/29 02:33:55;;;;;;;3.28;3.00;;;19.30;99.90;;;;;;4985836;28;20042;-75
2022/07/29 02:36:23;;;;;;;5.85;2.80;;;19.30;99.90;;;;;;4983159;28;20045;-75
2022/07/29 02:38:50;;;;;;;6.65;3.17;;;19.30;99.90;;;;;;4987661;28;20033;-75
2022/07/29 02:41:27;;;;;;;3.63;2.83;;;19.30;99.90;;;;;;4987536;28;20067;-75
2022/07/29 02:43:55;;;;;;;3.22;2.85;;;19.30;99.90;;;;;;4978150;28;20054;-76
2022/07/29 02:46:31;;;;;;;3.05;2.75;;;19.20;99.90;;;;;;4978637;28;20148;-75
2022/07/29 02:49:13;;;;;;;3.78;3.08;;;19.20;99.90;;;;;;4986930;28;20070;-76
2022/07/29 02:52:01;;;;;;;3.13;2.83;;;19.10;99.90;;;;;;4982190;28;20614;-76
2022/07/29 02:54:45;;;;;;;4.00;2.67;;;19.10;99.90;;;;;;4985738;28;20042;-75
2022/07/29 02:57:28;;;;;;;6.10;2.78;;;19.00;99.90;;;;;;4984026;28;20049;-75
2022/07/29 02:59:58;;;;;;;3.22;2.92;;;19.00;99.90;;;;;;4983034;28;20835;-76
2022/07/29 03:02:26;;;;;;;3.03;2.83;;;19.00;99.90;;;;;;4981257;28;20038;-76
2022/07/29 03:04:54;;;;;;;12.95;3.10;;;18.80;99.90;;;;;;4989193;28;20045;-75
2022/07/29 03:07:20;;;;;;;7.40;3.10;;;18.90;99.90;;;;;;4983633;28;20035;-75
2022/07/29 03:09:46;;;;;;;3.20;2.90;;;18.90;99.90;;;;;;4990600;28;20470;-74
2022/07/29 03:12:13;;;;;;;2.90;2.70;;;18.90;99.90;;;;;;4990030;28;20073;-76
2022/07/29 03:14:39;;;;;;;4.90;3.38;;;18.80;99.90;;;;;;4989639;28;20173;-75
2022/07/29 03:17:05;;;;;;;2.88;2.67;;;18.80;99.90;;;;;;4987077;28;20107;-74
2022/07/29 03:19:32;;;;;;;3.42;3.05;;;18.80;99.90;;;;;;4989101;28;20038;-75
2022/07/29 03:21:59;;;;;;;3.00;2.80;;;18.70;99.90;;;;;;4995693;28;20049;-75
2022/07/29 03:24:26;;;;;;;3.42;2.97;;;18.70;99.90;;;;;;4988225;28;20094;-74
2022/07/29 03:26:52;;;;;;;3.10;2.90;;;18.70;99.90;;;;;;4989636;28;20030;-75
2022/07/29 03:29:18;;;;;;;3.25;2.95;;;18.70;99.90;;;;;;4994033;28;21303;-75
2022/07/29 03:31:43;;;;;;;3.40;2.97;;;18.70;99.90;;;;;;4991939;28;20054;-75
2022/07/29 03:34:09;;;;;;;8.52;3.05;;;18.60;99.90;;;;;;4991348;28;20065;-75
2022/07/29 03:36:35;;;;;;;3.10;2.50;;;18.60;99.90;;;;;;4988775;28;20042;-75
2022/07/29 03:39:02;;;;;;;3.22;2.85;;;18.70;99.90;;;;;;4987228;28;20411;-75
2022/07/29 03:41:29;;;;;;;3.08;2.65;;;18.70;99.90;;;;;;4982945;28;20049;-75
2022/07/29 03:43:56;;;;;;;4.53;3.17;;;18.60;99.90;;;;;;4988496;28;20041;-75
2022/07/29 03:46:23;;;;;;;21.25;3.25;;;18.60;99.90;;;;;;4990344;28;20060;-75
2022/07/29 03:48:52;;;;;;;3.78;2.55;;;18.60;99.90;;;;;;4990340;28;20482;-75
2022/07/29 03:51:18;;;;;;;3.45;3.08;;;18.60;99.90;;;;;;4988720;28;21535;-75
2022/07/29 03:53:44;;;;;;;4.50;3.28;;;18.60;99.90;;;;;;4987052;28;20139;-75
2022/07/29 03:56:15;;;;;;;2.85;2.63;;;18.60;99.90;;;;;;4994400;28;20205;-75
2022/07/29 03:58:41;;;;;;;6.07;3.20;;;18.60;99.90;;;;;;4992465;28;20062;-75
2022/07/29 04:01:07;;;;;;;4.13;3.70;;;18.60;99.90;;;;;;4986227;28;20029;-75
2022/07/29 04:03:33;;;;;;;5.47;3.35;;;18.50;99.90;;;;;;4986984;28;20038;-75
2022/07/29 04:06:05;;;;;;;3.33;2.97;;;18.50;99.90;;;;;;4983381;28;20679;-75
2022/07/29 04:08:32;;;;;;;3.70;3.40;;;18.50;99.90;;;;;;4991105;28;20034;-74
2022/07/29 04:10:58;;;;;;;7.28;3.60;;;18.60;99.90;;;;;;4991238;28;20545;-75
2022/07/29 04:13:24;;;;;;;2.95;2.75;;;18.60;99.90;;;;;;4979478;28;20049;-75
2022/07/29 04:15:50;;;;;;;4.75;2.80;;;18.70;99.90;;;;;;4984491;28;20046;-75
2022/07/29 04:18:15;;;;;;;3.10;2.80;;;18.80;99.90;;;;;;4985923;28;20030;-75
2022/07/29 04:20:41;;;;;;;7.47;3.10;;;18.80;99.90;;;;;;4990634;28;20041;-76
2022/07/29 04:23:06;;;;;;;3.38;3.08;;;18.90;99.90;;;;;;4987110;28;20034;-76
2022/07/29 04:25:32;;;;;;;3.47;3.22;;;18.90;99.90;;;;;;4988909;28;20089;-76
2022/07/29 04:28:00;;;;;;;4.40;3.60;;;18.90;99.90;;;;;;4985698;28;20030;-76
2022/07/29 04:30:26;;;;;;;4.95;3.20;;;18.80;99.90;;;;;;4986282;28;20045;-77
2022/07/29 04:32:52;;;;;;;5.93;3.17;;;18.80;99.90;;;;;;4990708;28;20077;-76
2022/07/29 04:35:18;;;;;;;7.50;3.83;;;19.00;99.90;;;;;;4986183;28;20041;-76
2022/07/29 04:37:44;;;;;;;9.15;3.40;;;19.00;99.90;;;;;;4987024;28;21276;-76
2022/07/29 04:40:10;;;;;;;7.82;3.25;;;19.10;99.90;;;;;;4987832;28;20136;-75
2022/07/29 04:42:35;;;;;;;5.95;3.50;;;19.10;99.90;;;;;;4985025;28;20091;-76
2022/07/29 04:45:01;;;;;;;3.25;2.70;;;19.20;99.90;;;;;;4992086;28;20030;-76
2022/07/29 04:47:27;;;;;;;7.10;3.63;;;19.30;99.90;;;;;;4986737;28;20053;-76
2022/07/29 04:49:52;;;;;;;5.95;3.45;;;19.40;99.90;;;;;;4990296;28;20046;-76
2022/07/29 04:52:18;;;;;;;5.53;3.35;;;19.50;99.90;;;;;;4987400;28;20100;-76
2022/07/29 04:54:44;;;;;;;5.28;3.25;;;19.60;99.90;;;;;;4987508;28;20045;-77
2022/07/29 04:57:09;;;;;;;42.42;6.00;;;19.70;99.90;;;;;;4988941;28;20534;-76
2022/07/29 04:59:35;;;;;;;12.25;3.83;;;19.80;99.90;;;;;;4985446;28;20057;-75
2022/07/29 05:02:00;;;;;;;7.07;3.33;;;19.90;99.90;;;;;;4983978;28;20558;-76
2022/07/29 05:04:26;;;;;;;3.55;3.25;;;20.00;99.90;;;;;;4982400;28;20034;-76
2022/07/29 05:06:52;;;;;;;2.97;2.78;;;20.10;99.90;;;;;;4974877;28;20049;-76
2022/07/29 05:09:17;;;;;;;5.53;3.35;;;20.20;99.90;;;;;;4981994;28;20034;-76
2022/07/29 05:11:43;;;;;;;3.70;3.05;;;20.30;99.90;;;;;;4965417;28;20042;-76
2022/07/29 05:14:09;;;;;;;3.42;3.10;;;20.40;99.90;;;;;;4968102;28;20487;-66
2022/07/29 05:16:35;;;;;;;5.72;3.05;;;20.60;99.90;;;;;;4970025;28;20044;-66
2022/07/29 05:19:00;;;;;;;4.45;3.28;;;20.60;99.90;;;;;;4968870;28;20126;-67
2022/07/29 05:21:26;;;;;;;4.70;3.42;;;20.70;99.90;;;;;;4967573;28;20030;-67
2022/07/29 05:23:51;;;;;;;3.72;3.33;;;20.90;99.90;;;;;;4962485;28;20716;-67
2022/07/29 05:26:17;;;;;;;3.75;3.45;;;21.00;99.90;;;;;;4972600;28;20126;-67
2022/07/29 05:28:43;;;;;;;4.40;3.60;;;21.10;99.90;;;;;;4970982;28;20479;-66
2022/07/29 05:31:09;;;;;;;9.30;2.95;;;21.30;99.90;;;;;;4963556;28;21277;-66
2022/07/29 05:33:34;;;;;;;7.13;3.00;;;21.40;99.90;;;;;;4966282;28;20050;-66
2022/07/29 05:36:00;;;;;;;4.65;2.72;;;21.60;99.10;;;;;;4962657;28;20031;-66
2022/07/29 05:38:26;;;;;;;2.80;2.60;;;21.80;98.40;;;;;;4967055;28;20046;-66
2022/07/29 05:40:52;;;;;;;7.00;2.53;;;22.00;97.50;;;;;;4965167;28;20041;-67
2022/07/29 05:43:17;;;;;;;3.22;2.70;;;22.20;97.10;;;;;;4934563;28;20043;-66
2022/07/29 05:45:43;;;;;;;2.70;2.30;;;22.40;97.10;;;;;;4960548;28;20178;-67
2022/07/29 05:48:08;;;;;;;2.90;2.50;;;22.60;96.20;;;;;;4962953;28;20097;-66
2022/07/29 05:50:34;;;;;;;8.73;3.05;;;22.70;96.30;;;;;;4962990;28;20977;-66
2022/07/29 05:53:00;;;;;;;3.13;2.80;;;22.80;96.70;;;;;;4967703;28;20046;-66
2022/07/29 05:55:26;;;;;;;2.83;2.58;;;23.00;95.70;;;;;;4965669;28;20053;-66
2022/07/29 05:57:52;;;;;;;3.78;2.50;;;23.10;94.90;;;;;;4965971;28;20026;-65
2022/07/29 06:00:18;;;;;;;3.53;2.83;;;23.20;94.60;;;;;;4966847;28;20034;-66
2022/07/29 06:02:43;;;;;;;3.78;2.67;;;23.10;94.20;;;;;;4967111;28;20398;-65
2022/07/29 06:05:09;;;;;;;5.75;2.45;;;23.10;94.60;;;;;;4970607;28;20168;-66
2022/07/29 06:07:35;;;;;;;3.13;2.50;;;23.20;94.30;;;;;;4965908;28;20084;-70
2022/07/29 06:10:00;;;;;;;3.00;2.47;;;23.40;93.80;;;;;;4968806;28;20074;-66
2022/07/29 06:12:26;;;;;;;2.33;2.05;;;23.50;93.50;;;;;;4962083;28;20060;-66
2022/07/29 06:14:51;;;;;;;6.88;2.42;;;23.60;93.60;;;;;;4962577;28;20042;-66
2022/07/29 06:17:17;;;;;;;4.15;2.55;;;23.70;93.30;;;;;;4963611;28;20070;-65
2022/07/29 06:19:43;;;;;;;2.33;2.13;;;23.80;93.20;;;;;;4969525;28;20042;-67
2022/07/29 06:22:08;;;;;;;9.20;2.38;;;24.00;93.10;;;;;;4966452;28;20488;-68
2022/07/29 06:24:37;;;;;;;2.42;2.25;;;24.00;92.80;;;;;;4958960;28;20046;-66
2022/07/29 06:27:03;;;;;;;2.88;2.67;;;24.10;92.50;;;;;;4954783;28;20076;-66
2022/07/29 06:29:29;;;;;;;2.70;2.50;;;24.20;92.20;;;;;;4973594;28;20113;-67
2022/07/29 06:31:54;;;;;;;3.15;2.17;;;24.30;92.10;;;;;;4969056;28;20161;-67
2022/07/29 06:34:20;;;;;;;26.70;3.80;;;24.40;92.00;;;;;;4975529;28;20046;-66
2022/07/29 06:36:46;;;;;;;6.03;2.78;;;24.60;92.30;;;;;;4969266;28;20089;-67
2022/07/29 06:39:12;;;;;;;10.15;2.60;;;24.80;92.00;;;;;;4964247;28;20043;-67
2022/07/29 06:41:37;;;;;;;5.32;2.53;;;24.90;91.40;;;;;;4964002;28;20045;-67
2022/07/29 06:44:04;;;;;;;3.08;2.35;;;25.00;90.90;;;;;;4964968;28;20034;-67
2022/07/29 06:46:30;;;;;;;3.67;2.85;;;25.10;90.60;;;;;;4964852;28;20077;-67
2022/07/29 06:48:55;;;;;;;6.60;2.65;;;25.10;90.70;;;;;;4954941;28;20479;-67
2022/07/29 06:51:22;;;;;;;4.80;2.67;;;25.20;90.40;;;;;;4964995;28;20043;-67
2022/07/29 06:53:47;;;;;;;2.40;2.28;;;25.30;90.30;;;;;;4970806;28;20546;-67
2022/07/29 06:56:13;;;;;;;2.80;2.58;;;25.40;89.40;;;;;;4965002;28;20101;-67
2022/07/29 06:58:39;;;;;;;2.97;2.58;;;25.40;88.90;;;;;;4971250;28;20039;-67
2022/07/29 07:01:06;;;;;;;2.83;2.38;;;25.60;87.70;;;;;;4964606;28;20085;-67
2022/07/29 07:03:32;;;;;;;38.67;10.52;;;25.60;87.60;;;;;;4963205;28;20345;-66
2022/07/29 07:05:58;;;;;;;13.98;5.82;;;25.60;89.40;;;;;;4973315;28;20978;-66
2022/07/29 07:08:24;;;;;;;22.33;10.57;;;25.60;89.40;;;;;;4956120;28;20042;-67
2022/07/29 07:10:51;;;;;;;12.90;6.13;;;25.80;89.10;;;;;;4985889;28;20618;-67
2022/07/29 07:13:17;;;;;;;3.80;3.45;;;25.80;89.30;;;;;;4984467;28;20141;-67
2022/07/29 07:15:44;;;;;;;10.65;5.32;;;25.90;87.00;;;;;;4982538;28;20502;-66
2022/07/29 07:18:10;;;;;;;2.92;2.65;;;26.10;87.30;;;;;;4993105;28;20030;-67
2022/07/29 07:20:36;;;;;;;3.05;2.45;;;26.30;84.50;;;;;;4987834;28;20408;-66
2022/07/29 07:23:02;;;;;;;2.78;2.58;;;26.30;84.50;;;;;;4985910;28;20277;-67
2022/07/29 07:25:28;;;;;;;16.83;5.95;;;26.30;84.50;;;;;;4992476;28;20030;-67
2022/07/29 07:27:53;;;;;;;4.32;3.53;;;26.50;85.20;;;;;;4990416;28;20046;-65
2022/07/29 07:30:19;;;;;;;3.80;2.38;;;26.70;82.30;;;;;;4989802;28;20045;-65
2022/07/29 07:32:45;;;;;;;3.03;2.72;;;26.70;83.00;;;;;;4991354;28;20116;-65
2022/07/29 07:35:11;;;;;;;4.15;3.25;;;26.70;81.70;;;;;;4991468;28;20069;-65
2022/07/29 07:37:37;;;;;;;4.18;2.70;;;26.60;80.70;;;;;;4986396;28;20515;-65
2022/07/29 07:40:04;;;;;;;4.00;2.67;;;26.80;80.60;;;;;;4995037;28;20406;-65
2022/07/29 07:42:30;;;;;;;2.90;2.60;;;26.80;80.70;;;;;;4991987;28;20038;-65
2022/07/29 07:44:55;;;;;;;4.40;2.65;;;26.90;81.30;;;;;;4998898;28;20108;-65
2022/07/29 07:47:23;;;;;;;3.15;2.55;;;27.00;81.10;;;;;;4995206;28;20426;-65
2022/07/29 07:49:50;;;;;;;2.53;2.40;;;27.10;81.70;;;;;;4995608;28;20057;-66
2022/07/29 07:52:17;;;;;;;5.35;2.78;;;27.20;82.60;;;;;;4998831;28;20041;-66
2022/07/29 07:54:44;;;;;;;5.70;2.47;;;27.40;80.30;;;;;;4997400;28;20092;-65
2022/07/29 07:57:10;;;;;;;7.03;2.88;;;27.50;78.40;;;;;;4993899;28;20848;-65
2022/07/29 07:59:36;;;;;;;2.97;2.70;;;27.50;77.50;;;;;;4994102;28;20054;-66
2022/07/29 08:02:02;;;;;;;3.20;2.70;;;27.60;76.40;;;;;;4998161;28;20038;-66
2022/07/29 08:04:28;;;;;;;4.50;2.50;;;27.60;75.20;;;;;;4994834;28;20045;-66
2022/07/29 08:06:54;;;;;;;4.72;2.92;;;27.50;75.10;;;;;;4998314;28;20034;-66
2022/07/29 08:09:21;;;;;;;5.70;2.60;;;27.50;75.60;;;;;;4987977;28;20934;-66
2022/07/29 08:11:47;;;;;;;3.15;2.50;;;27.60;76.50;;;;;;4974990;28;20481;-66
2022/07/29 08:14:13;;;;;;;2.67;2.47;;;27.80;77.80;;;;;;4975804;28;20038;-66
2022/07/29 08:16:40;;;;;;;2.88;2.58;;;27.90;75.80;;;;;;4974525;28;20034;-67
2022/07/29 08:19:06;;;;;;;3.22;2.65;;;28.00;74.10;;;;;;4977846;28;20046;-66
2022/07/29 08:21:31;;;;;;;3.05;2.75;;;28.00;73.60;;;;;;4970557;28;20363;-66
2022/07/29 08:26:42;;;;;;;3.05;2.58;;;28.20;74.10;;;;;;4973590;28;20145;-67
2022/07/29 08:29:09;;;;;;;5.03;2.67;;;28.30;73.70;;;;;;4968415;28;20283;-66
2022/07/29 08:31:35;;;;;;;2.55;2.35;;;28.30;72.00;;;;;;4973144;28;20506;-66
2022/07/29 08:34:02;;;;;;;2.80;2.53;;;28.30;70.60;;;;;;4964903;28;20386;-66
2022/07/29 08:36:28;;;;;;;3.30;2.75;;;28.30;71.80;;;;;;4973326;28;20034;-66
2022/07/29 08:38:54;;;;;;;4.53;2.70;;;28.40;72.20;;;;;;4977783;28;20042;-67
2022/07/29 08:41:19;;;;;;;2.70;2.50;;;28.50;72.90;;;;;;4971185;28;20901;-67
2022/07/29 08:43:46;;;;;;;3.53;3.00;;;28.50;72.50;;;;;;4968322;28;20061;-66
2022/07/29 08:46:12;;;;;;;5.60;2.85;;;28.60;70.90;;;;;;4961075;28;20127;-66
2022/07/29 08:48:38;;;;;;;7.70;2.88;;;28.50;70.50;;;;;;4967552;28;20717;-66
2022/07/29 08:51:07;;;;;;;7.55;2.75;;;28.60;70.80;;;;;;4966505;28;20039;-67
2022/07/29 08:53:34;;;;;;;5.28;2.47;;;28.60;70.60;;;;;;4964227;28;20053;-67
2022/07/29 08:56:01;;;;;;;4.05;2.78;;;28.60;70.30;;;;;;4952085;28;20391;-67
2022/07/29 08:58:32;;;;;;;2.50;2.22;;;28.60;71.10;;;;;;4962857;28;20523;-66
2022/07/29 09:01:02;;;;;;;3.58;2.63;;;28.70;67.80;;;;;;4971171;28;20096;-66
2022/07/29 09:03:31;;;;;;;4.70;2.03;;;28.60;68.50;;;;;;4967342;28;20038;-66
2022/07/29 09:05:58;;;;;;;3.65;2.50;;;28.70;69.20;;;;;;4961080;28;20046;-66
2022/07/29 09:08:24;;;;;;;2.75;2.55;;;28.90;70.80;;;;;;4973321;28;20782;-66
2022/07/29 09:10:51;;;;;;;4.22;2.20;;;29.00;70.50;;;;;;4969657;28;20046;-66
2022/07/29 09:13:17;;;;;;;6.00;2.80;;;29.10;71.30;;;;;;4971670;28;20535;-66
2022/07/29 09:15:44;;;;;;;4.90;2.50;;;29.30;71.10;;;;;;4951050;28;20113;-66
2022/07/29 09:18:10;;;;;;;3.95;2.50;;;29.40;68.80;;;;;;4959840;28;20031;-66
2022/07/29 09:23:21;;;;;;;3.03;2.80;;;29.40;65.50;;;;;;4970686;28;21372;-66
2022/07/29 09:25:47;;;;;;;2.97;2.40;;;29.40;64.10;;;;;;4965804;28;20162;-65
2022/07/29 09:28:16;;;;;;;2.90;2.55;;;29.40;65.90;;;;;;4963829;28;20476;-65
2022/07/29 09:30:56;;;;;;;3.20;2.40;;;29.50;66.40;;;;;;4965172;28;20558;-66
2022/07/29 09:33:23;;;;;;;2.65;2.42;;;29.50;65.70;;;;;;4969396;28;20094;-66
2022/07/29 09:36:06;;;;;;;2.83;2.22;;;29.60;63.90;;;;;;4971267;28;20395;-66
2022/07/29 09:38:33;;;;;;;5.10;2.65;;;29.60;65.00;;;;;;4964003;28;20586;-66
2022/07/29 09:41:00;;;;;;;4.43;2.33;;;29.70;62.90;;;;;;4965981;28;20619;-66
2022/07/29 09:43:27;;;;;;;6.25;2.78;;;29.80;64.00;;;;;;4967883;28;20039;-66
2022/07/29 09:45:53;;;;;;;2.70;2.28;;;30.00;64.00;;;;;;4966350;28;20156;-67
2022/07/29 09:48:24;;;;;;;4.07;2.60;;;30.10;59.30;;;;;;4969394;28;20133;-67
2022/07/29 09:50:52;;;;;;;2.35;2.10;;;30.00;59.40;;;;;;4967102;28;20065;-67
2022/07/29 09:53:47;;;;;;;3.05;2.58;;;30.00;60.30;;;;;;4970958;28;20066;-67
2022/07/29 09:56:14;;;;;;;7.57;2.30;;;30.00;60.70;;;;;;4959273;28;20125;-67
2022/07/29 09:58:39;;;;;;;4.80;2.20;;;30.10;59.10;;;;;;4972359;28;20042;-67
2022/07/29 10:01:05;;;;;;;4.13;2.60;;;30.20;62.00;;;;;;4972184;28;20053;-67
2022/07/29 10:03:30;;;;;;;6.15;2.30;;;30.40;60.50;;;;;;4970091;28;20540;-66
2022/07/29 10:06:08;;;;;;;3.90;2.53;;;30.50;59.50;;;;;;4962358;28;20407;-67
2022/07/29 10:08:34;;;;;;;2.28;2.08;;;30.40;58.80;;;;;;4962240;28;20044;-67
2022/07/29 10:11:19;;;;;;;7.75;2.58;;;30.30;58.90;;;;;;4974784;28;20031;-67
2022/07/29 10:13:47;;;;;;;10.40;2.30;;;30.20;58.30;;;;;;4968693;28;20046;-66
2022/07/29 10:16:15;;;;;;;5.22;2.42;;;30.00;57.30;;;;;;4970068;28;20035;-67
2022/07/29 10:18:42;;;;;;;7.15;2.30;;;29.90;58.40;;;;;;4972003;28;20049;-67
2022/07/29 10:21:09;;;;;;;3.83;2.15;;;29.90;59.30;;;;;;4977910;28;20955;-67
2022/07/29 10:23:35;;;;;;;19.33;3.22;;;30.00;58.50;;;;;;4970898;28;20042;-67
2022/07/29 10:26:02;;;;;;;3.80;2.40;;;29.90;58.40;;;;;;4975962;28;20684;-67
2022/07/29 10:28:30;;;;;;;2.75;2.13;;;29.90;58.70;;;;;;4970789;28;20066;-67
2022/07/29 10:31:03;;;;;;;10.18;2.10;;;29.90;58.30;;;;;;4970558;28;20049;-66
2022/07/29 10:34:11;;;;;;;2.63;2.20;;;29.90;58.00;;;;;;4972900;28;20110;-67
2022/07/29 10:37:01;;;;;;;4.13;2.15;;;29.90;61.90;;;;;;4968074;28;20050;-66
2022/07/29 10:41:26;;;;;;;9.10;2.90;;;30.00;58.70;;;;;;4977960;28;20046;-66
2022/07/29 10:42:53;;;;;;;3.83;2.10;;;30.10;57.10;;;;;;4977622;28;20065;-67
2022/07/29 10:45:19;;;;;;;14.77;2.42;;;30.00;57.10;;;;;;4960539;28;20488;-67
2022/07/29 10:47:45;;;;;;;5.10;2.10;;;29.90;57.10;;;;;;4959150;28;21346;-67
2022/07/29 10:50:11;;;;;;;25.92;3.67;;;30.00;56.60;;;;;;4974502;28;20039;-67
2022/07/29 10:52:58;;;;;;;4.78;2.33;;;30.10;57.30;;;;;;4967624;28;20056;-67
2022/07/29 10:55:42;;;;;;;4.15;2.80;;;30.30;59.30;;;;;;4971639;28;20042;-68
2022/07/29 10:58:16;;;;;;;2.42;2.10;;;30.60;57.80;;;;;;4964762;28;20034;-67
2022/07/29 11:00:42;;;;;;;2.35;1.98;;;30.70;55.70;;;;;;4976051;28;20077;-68
2022/07/29 11:03:07;;;;;;;5.13;2.20;;;30.70;54.50;;;;;;4973571;28;20032;-66
2022/07/29 11:05:56;;;;;;;7.18;2.13;;;30.50;54.20;;;;;;4966853;28;20133;-67
2022/07/29 11:08:23;;;;;;;3.65;2.05;;;30.30;54.20;;;;;;4972046;28;20050;-67
2022/07/29 11:10:51;;;;;;;2.38;2.03;;;30.20;54.60;;;;;;4976884;28;20443;-68
2022/07/29 11:13:41;;;;;;;5.07;2.22;;;30.10;54.10;;;;;;4972520;28;20038;-67
2022/07/29 11:16:07;;;;;;;2.20;2.00;;;30.00;56.00;;;;;;4976650;28;20069;-68
2022/07/29 11:18:33;;;;;;;3.10;1.98;;;30.10;54.80;;;;;;4972451;28;20113;-68
2022/07/29 11:20:59;;;;;;;3.35;2.45;;;30.20;55.20;;;;;;4969975;28;20096;-68
2022/07/29 11:23:36;;;;;;;7.25;2.28;;;30.30;56.20;;;;;;4969170;28;20145;-68
2022/07/29 11:26:12;;;;;;;2.45;2.13;;;30.60;57.20;;;;;;4974118;28;20046;-68
2022/07/29 11:28:51;;;;;;;2.22;2.00;;;30.80;55.50;;;;;;4968689;28;20049;-67
2022/07/29 11:31:19;;;;;;;7.30;2.17;;;30.90;57.10;;;;;;4968487;28;20130;-67
2022/07/29 11:33:45;;;;;;;3.60;2.17;;;31.20;56.50;;;;;;4968356;28;20435;-67
2022/07/29 11:36:15;;;;;;;3.90;2.22;;;31.20;54.90;;;;;;4976248;28;20041;-67
2022/07/29 11:38:41;;;;;;;4.10;2.03;;;31.10;53.30;;;;;;4969088;28;20077;-67
2022/07/29 11:41:25;;;;;;;3.75;1.95;;;30.90;52.40;;;;;;4971982;28;20043;-67
2022/07/29 11:43:55;;;;;;;3.25;2.10;;;30.60;53.10;;;;;;4965682;28;20046;-65
2022/07/29 11:46:43;;;;;;;4.13;2.35;;;30.40;52.00;;;;;;4963440;28;20992;-66
2022/07/29 11:49:09;;;;;;;4.03;1.98;;;30.20;53.10;;;;;;4960586;28;20443;-65
2022/07/29 11:51:39;;;;;;;2.58;1.90;;;30.30;53.90;;;;;;4967807;28;20038;-66
2022/07/29 11:54:05;;;;;;;3.90;2.20;;;30.50;54.30;;;;;;4972595;28;20050;-65
2022/07/29 11:56:32;;;;;;;2.35;1.92;;;30.70;54.10;;;;;;4972536;28;20038;-65
2022/07/29 11:59:09;;;;;;;3.45;1.80;;;30.70;51.70;;;;;;4970363;28;20129;-65
2022/07/29 12:01:35;;;;;;;3.47;1.85;;;30.70;51.80;;;;;;4970086;28;20554;-65
2022/07/29 12:04:07;;;;;;;2.90;1.88;;;30.70;52.90;;;;;;4967308;28;20120;-65
2022/07/29 12:06:34;;;;;;;1.92;1.83;;;30.80;51.80;;;;;;4968725;28;20049;-66
2022/07/29 12:09:00;;;;;;;2.55;1.92;;;30.90;53.10;;;;;;4971110;28;20034;-65
2022/07/29 12:11:26;;;;;;;4.28;2.00;;;31.00;50.10;;;;;;4972475;28;20034;-65
2022/07/29 12:13:52;;;;;;;4.35;1.90;;;30.90;50.80;;;;;;4968273;28;20559;-65
2022/07/29 12:16:21;;;;;;;3.80;1.92;;;30.80;50.90;;;;;;4965069;28;20050;-65
2022/07/29 12:18:57;;;;;;;2.08;1.70;;;30.60;50.50;;;;;;4967360;28;20046;-65
2022/07/29 12:21:23;;;;;;;2.25;1.80;;;30.60;50.70;;;;;;4962045;28;20042;-65
2022/07/29 12:23:54;;;;;;;3.95;2.47;;;30.50;51.10;;;;;;4973732;28;20038;-64
2022/07/29 12:26:20;;;;;;;2.10;1.90;;;30.60;51.30;;;;;;4974079;28;20030;-65
2022/07/29 12:28:45;;;;;;;2.70;1.70;;;30.60;51.20;;;;;;4968190;28;20487;-65
2022/07/29 12:31:15;;;;;;;3.75;1.83;;;30.70;50.90;;;;;;4966375;28;20044;-64
2022/07/29 12:33:41;;;;;;;3.88;1.98;;;30.70;52.10;;;;;;4965987;28;20046;-65
2022/07/29 12:36:07;;;;;;;4.03;2.10;;;30.70;50.40;;;;;;4970359;28;20038;-65
2022/07/29 12:38:34;;;;;;;2.25;2.00;;;30.60;51.30;;;;;;4964677;28;20410;-65
2022/07/29 12:41:00;;;;;;;2.80;2.20;;;30.70;52.30;;;;;;4972028;28;20034;-65
2022/07/29 12:43:26;;;;;;;2.50;1.75;;;30.90;50.30;;;;;;4972233;28;20147;-65
2022/07/29 12:45:59;;;;;;;4.50;2.13;;;31.10;50.70;;;;;;4967730;28;20031;-66
2022/07/29 12:48:39;;;;;;;2.58;1.80;;;31.20;49.70;;;;;;4962661;28;20046;-65
2022/07/29 12:51:07;;;;;;;2.90;1.50;;;31.20;49.00;;;;;;4968414;28;20034;-65
2022/07/29 12:53:33;;;;;;;5.85;2.00;;;31.00;49.50;;;;;;4967739;28;21014;-68
2022/07/29 12:56:02;;;;;;;5.68;2.20;;;31.00;49.20;;;;;;4969921;28;20026;-68
2022/07/29 12:58:34;;;;;;;2.45;2.10;;;31.00;50.20;;;;;;4967247;28;22845;-66
2022/07/29 13:01:02;;;;;;;4.50;2.03;;;31.10;50.50;;;;;;4968826;28;20501;-66